Time;durP1;ratioP1;P1;durP2;ratioP2;P2;SDS_P1;SDS_P2;PMS_P1;PMS_P2;Temp;Humidity;BMP_temperature;BMP_pressure;BME280_temperature;BME280_humidity;BME280_pressure;Samples;Min_cycle;Max_cycle;Signal;HPM_P1;HPM_P2
2023/10/31 00:00:34;;;;;;;;;;;27.40;54.60;;;;;;5122648;27;19912;-74
2023/10/31 00:03:01;;;;;;;;;;;27.50;54.40;;;;;;5113727;28;19972;-75
2023/10/31 00:05:27;;;;;;;;;;;27.60;54.00;;;;;;5106537;28;20010;-73
2023/10/31 00:07:54;;;;;;;;;;;27.70;53.60;;;;;;5113785;28;19911;-74
2023/10/31 00:10:21;;;;;;;;;;;27.80;53.30;;;;;;5113567;28;19908;-75
2023/10/31 00:12:48;;;;;;;;;;;27.80;51.40;;;;;;5113150;28;19923;-75
2023/10/31 00:15:14;;;;;;;;;;;27.80;51.10;;;;;;5110908;28;19914;-74
2023/10/31 00:17:41;;;;;;;;;;;27.70;51.60;;;;;;5108983;28;19954;-74
2023/10/31 00:20:08;;;;;;;;;;;27.80;51.10;;;;;;5113996;27;19918;-74
2023/10/31 00:22:34;;;;;;;;;;;27.90;51.10;;;;;;5113113;28;19915;-77
2023/10/31 00:25:01;;;;;;;;;;;28.00;51.00;;;;;;5095252;28;19908;-78
2023/10/31 00:27:28;;;;;;;;;;;27.80;49.70;;;;;;5093167;28;19908;-77
2023/10/31 00:29:54;;;;;;;;;;;27.90;49.20;;;;;;5124636;27;20255;-74
2023/10/31 00:32:21;;;;;;;;;;;27.90;49.20;;;;;;5117056;27;19920;-76
2023/10/31 00:34:47;;;;;;;;;;;28.10;47.90;;;;;;5109614;28;19962;-76
2023/10/31 00:37:14;;;;;;;;;;;28.10;47.80;;;;;;5113149;27;20352;-76
2023/10/31 00:39:41;;;;;;;;;;;28.20;47.70;;;;;;5112690;28;19914;-78
2023/10/31 00:42:08;;;;;;;;;;;28.30;47.10;;;;;;5113825;27;19957;-75
2023/10/31 00:44:34;;;;;;;;;;;28.30;46.60;;;;;;5112337;28;19908;-75
2023/10/31 00:47:01;;;;;;;;;;;28.30;46.60;;;;;;5110374;28;20257;-73
2023/10/31 00:49:28;;;;;;;;;;;28.30;45.50;;;;;;5094502;28;19919;-75
2023/10/31 00:51:54;;;;;;;;;;;28.30;44.80;;;;;;5112552;28;19912;-75
2023/10/31 00:54:21;;;;;;;;;;;28.40;43.80;;;;;;5109662;28;19934;-73
2023/10/31 00:56:48;;;;;;;;;;;28.60;43.10;;;;;;5112658;28;20337;-78
2023/10/31 00:59:14;;;;;;;;;;;28.70;42.40;;;;;;5112089;28;19939;-77
2023/10/31 01:01:42;;;;;;;;;;;28.80;41.80;;;;;;5112111;28;20010;-75
2023/10/31 01:04:09;;;;;;;;;;;28.80;39.30;;;;;;5111875;28;19988;-78
2023/10/31 01:06:44;;;;;;;;;;;28.90;39.40;;;;;;5113581;28;19919;-78
2023/10/31 01:09:11;;;;;;;;;;;28.90;39.30;;;;;;5111827;28;19970;-76
2023/10/31 01:11:37;;;;;;;;;;;28.90;39.40;;;;;;5113070;27;20002;-74
2023/10/31 01:14:04;;;;;;;;;;;29.00;39.20;;;;;;5111976;28;19907;-77
2023/10/31 01:16:31;;;;;;;;;;;29.10;39.50;;;;;;5111733;28;19912;-77
2023/10/31 01:18:58;;;;;;;;;;;29.20;38.90;;;;;;5111593;28;19966;-79
2023/10/31 01:21:25;;;;;;;;;;;29.20;39.10;;;;;;5112275;28;19915;-77
2023/10/31 01:23:51;;;;;;;;;;;29.30;39.60;;;;;;5111571;28;19907;-73
2023/10/31 01:26:18;;;;;;;;;;;29.40;41.30;;;;;;5111028;28;19908;-73
2023/10/31 01:28:44;;;;;;;;;;;29.50;42.80;;;;;;5111678;28;19908;-74
2023/10/31 01:31:11;;;;;;;;;;;29.70;42.40;;;;;;5112223;28;20004;-75
2023/10/31 01:33:38;;;;;;;;;;;29.80;42.40;;;;;;5112962;28;19927;-75
2023/10/31 01:36:04;;;;;;;;;;;29.70;41.70;;;;;;5112280;28;20319;-72
2023/10/31 01:38:31;;;;;;;;;;;29.80;40.90;;;;;;5092193;28;19916;-76
2023/10/31 01:40:58;;;;;;;;;;;29.80;39.90;;;;;;5112378;28;19908;-74
2023/10/31 01:43:31;;;;;;;;;;;29.80;40.30;;;;;;5115324;28;19912;-74
2023/10/31 01:45:58;;;;;;;;;;;29.80;37.60;;;;;;5112053;28;19908;-71
2023/10/31 01:48:25;;;;;;;;;;;29.90;38.60;;;;;;5093786;28;19920;-73
2023/10/31 01:50:52;;;;;;;;;;;30.00;37.80;;;;;;5112232;28;19962;-74
2023/10/31 01:53:19;;;;;;;;;;;29.90;38.40;;;;;;5112469;28;20002;-74
2023/10/31 01:55:46;;;;;;;;;;;29.90;37.40;;;;;;5093945;28;19908;-74
2023/10/31 01:58:13;;;;;;;;;;;29.90;38.10;;;;;;5114686;28;19912;-74
2023/10/31 02:00:43;;;;;;;;;;;29.90;37.60;;;;;;5115250;28;19994;-74
2023/10/31 02:03:10;;;;;;;;;;;30.00;37.20;;;;;;5115735;28;19914;-74
2023/10/31 02:05:36;;;;;;;;;;;30.00;38.70;;;;;;5116187;28;20377;-76
2023/10/31 02:08:03;;;;;;;;;;;30.20;36.20;;;;;;5115955;28;20420;-76
2023/10/31 02:10:30;;;;;;;;;;;30.10;35.90;;;;;;5115866;28;20261;-76
2023/10/31 02:12:56;;;;;;;;;;;30.10;36.10;;;;;;5123050;27;20018;-77
2023/10/31 02:15:23;;;;;;;;;;;30.10;36.50;;;;;;5129996;27;19912;-74
2023/10/31 02:17:50;;;;;;;;;;;30.20;35.60;;;;;;5117353;27;19916;-79
2023/10/31 02:20:16;;;;;;;;;;;30.30;35.70;;;;;;5118962;27;20295;-77
2023/10/31 02:22:43;;;;;;;;;;;30.20;36.30;;;;;;5132289;27;19908;-78
2023/10/31 02:25:18;;;;;;;;;;;30.30;35.90;;;;;;5114625;28;19915;-74
2023/10/31 02:27:45;;;;;;;;;;;30.40;35.30;;;;;;5105206;28;19908;-75
2023/10/31 02:30:12;;;;;;;;;;;30.60;35.80;;;;;;5113986;27;19912;-73
2023/10/31 02:32:39;;;;;;;;;;;30.90;37.00;;;;;;5115687;28;19915;-74
2023/10/31 02:35:06;;;;;;;;;;;31.40;37.40;;;;;;5115259;28;19908;-75
2023/10/31 02:37:32;;;;;;;;;;;31.70;37.00;;;;;;5124441;27;19915;-74
2023/10/31 02:40:00;;;;;;;;;;;32.20;37.40;;;;;;5129042;27;19907;-74
2023/10/31 02:42:27;;;;;;;;;;;32.80;37.00;;;;;;5114209;27;20372;-73
2023/10/31 02:44:54;;;;;;;;;;;33.50;36.60;;;;;;5114922;27;19908;-75
2023/10/31 02:47:20;;;;;;;;;;;33.90;35.50;;;;;;5114695;28;19912;-74
2023/10/31 02:49:47;;;;;;;;;;;34.20;34.30;;;;;;5114718;28;19924;-75
2023/10/31 02:52:14;;;;;;;;;;;34.60;34.50;;;;;;5114638;28;20012;-73
2023/10/31 02:54:40;;;;;;;;;;;34.90;34.40;;;;;;5114938;28;19919;-73
2023/10/31 02:57:07;;;;;;;;;;;35.80;35.30;;;;;;5106322;27;20351;-73
2023/10/31 02:59:34;;;;;;;;;;;36.30;34.60;;;;;;5127659;27;19912;-74
2023/10/31 03:02:00;;;;;;;;;;;36.90;34.40;;;;;;5119636;27;19923;-73
2023/10/31 03:04:27;;;;;;;;;;;37.20;34.30;;;;;;5114254;28;19919;-71
2023/10/31 03:06:54;;;;;;;;;;;37.60;33.40;;;;;;5114364;27;19911;-75
2023/10/31 03:09:20;;;;;;;;;;;37.50;33.50;;;;;;5113880;28;19912;-74
2023/10/31 03:11:47;;;;;;;;;;;37.60;33.70;;;;;;5113759;28;20018;-75
2023/10/31 03:14:13;;;;;;;;;;;37.70;35.00;;;;;;5095321;28;21008;-73
2023/10/31 03:16:40;;;;;;;;;;;38.60;37.80;;;;;;5104065;27;19916;-73
2023/10/31 03:19:07;;;;;;;;;;;39.00;46.00;;;;;;5113953;28;19918;-73
2023/10/31 03:21:34;;;;;;;;;;;38.70;48.10;;;;;;5113618;28;20006;-73
2023/10/31 03:24:00;;;;;;;;;;;38.20;51.20;;;;;;5114106;28;19922;-73
2023/10/31 03:26:27;;;;;;;;;;;38.20;53.20;;;;;;5123774;27;19960;-73
2023/10/31 03:28:57;;;;;;;;;;;38.30;53.80;;;;;;5114317;28;19977;-73
2023/10/31 03:31:24;;;;;;;;;;;38.50;54.40;;;;;;5113743;28;19908;-73
2023/10/31 03:33:51;;;;;;;;;;;38.20;54.20;;;;;;5110780;28;19926;-71
2023/10/31 03:36:18;;;;;;;;;;;37.20;55.30;;;;;;5103185;28;19915;-72
2023/10/31 03:38:44;;;;;;;;;;;36.50;56.00;;;;;;5113769;28;19929;-71
2023/10/31 03:41:13;;;;;;;;;;;36.60;56.20;;;;;;5123901;27;19918;-71
2023/10/31 03:43:39;;;;;;;;;;;36.40;56.20;;;;;;5111971;27;20249;-73
2023/10/31 03:46:06;;;;;;;;;;;36.90;56.60;;;;;;5113206;28;19908;-75
2023/10/31 03:48:32;;;;;;;;;;;36.80;56.10;;;;;;5112838;28;19927;-72
2023/10/31 03:50:59;;;;;;;;;;;36.60;55.90;;;;;;5112902;28;19917;-75
2023/10/31 03:53:26;;;;;;;;;;;36.90;57.20;;;;;;5116462;27;19926;-75
2023/10/31 03:55:52;;;;;;;;;;;36.60;56.50;;;;;;5101799;28;19916;-73
2023/10/31 03:58:19;;;;;;;;;;;36.70;55.80;;;;;;5110657;27;19911;-73
2023/10/31 04:00:46;;;;;;;;;;;37.10;56.70;;;;;;5113235;28;19911;-74
2023/10/31 04:03:12;;;;;;;;;;;37.60;55.50;;;;;;5113152;28;19911;-75
2023/10/31 04:05:39;;;;;;;;;;;36.90;55.60;;;;;;5108403;28;19978;-75
2023/10/31 04:08:06;;;;;;;;;;;36.60;56.50;;;;;;5095776;28;19912;-73
2023/10/31 04:10:32;;;;;;;;;;;36.40;56.00;;;;;;5111721;28;19965;-73
2023/10/31 04:12:59;;;;;;;;;;;36.80;55.80;;;;;;5112144;28;19985;-71
2023/10/31 04:15:26;;;;;;;;;;;37.00;55.50;;;;;;5111878;28;19923;-72
2023/10/31 04:17:52;;;;;;;;;;;36.90;55.20;;;;;;5110709;28;19912;-72
2023/10/31 04:20:19;;;;;;;;;;;37.10;55.20;;;;;;5111653;28;20284;-73
2023/10/31 04:22:45;;;;;;;;;;;36.80;55.50;;;;;;5124151;27;19911;-71
2023/10/31 04:25:12;;;;;;;;;;;36.80;55.20;;;;;;5130300;27;19960;-70
2023/10/31 04:27:39;;;;;;;;;;;36.30;55.30;;;;;;5093038;28;19916;-72
2023/10/31 04:30:06;;;;;;;;;;;36.20;54.80;;;;;;5117045;27;19916;-72
2023/10/31 04:32:32;;;;;;;;;;;36.30;55.10;;;;;;5112695;28;20291;-73
2023/10/31 04:34:59;;;;;;;;;;;36.70;55.20;;;;;;5112683;28;19920;-74
2023/10/31 04:37:26;;;;;;;;;;;36.70;55.40;;;;;;5117014;27;19915;-72
2023/10/31 04:39:52;;;;;;;;;;;37.00;54.10;;;;;;5114001;27;19918;-75
2023/10/31 04:42:20;;;;;;;;;;;36.80;53.60;;;;;;5091823;28;19999;-71
2023/10/31 04:44:46;;;;;;;;;;;36.50;53.90;;;;;;5124766;27;19911;-71
2023/10/31 04:47:13;;;;;;;;;;;36.30;54.40;;;;;;5114230;27;19911;-74
2023/10/31 04:49:40;;;;;;;;;;;36.30;54.90;;;;;;5122275;27;20418;-73
2023/10/31 04:52:07;;;;;;;;;;;36.80;54.00;;;;;;5116644;27;19915;-72
2023/10/31 04:54:34;;;;;;;;;;;36.80;55.40;;;;;;5104904;28;20287;-74
2023/10/31 04:57:00;;;;;;;;;;;36.70;53.90;;;;;;5107826;28;20384;-73
2023/10/31 04:59:27;;;;;;;;;;;36.70;54.20;;;;;;5104760;27;19956;-72
2023/10/31 05:01:55;;;;;;;;;;;37.00;53.70;;;;;;5105523;28;19969;-71
2023/10/31 05:04:21;;;;;;;;;;;37.10;53.40;;;;;;5097814;28;19941;-75
2023/10/31 05:06:48;;;;;;;;;;;36.70;53.60;;;;;;5110527;28;20374;-72
2023/10/31 05:09:15;;;;;;;;;;;36.70;52.80;;;;;;5115173;27;19954;-75
2023/10/31 05:11:41;;;;;;;;;;;36.70;53.60;;;;;;5111769;28;19915;-70
2023/10/31 05:14:10;;;;;;;;;;;36.40;53.90;;;;;;5112198;28;20288;-72
2023/10/31 05:16:40;;;;;;;;;;;35.70;54.40;;;;;;5111561;27;19923;-74
2023/10/31 05:19:07;;;;;;;;;;;34.90;55.70;;;;;;5093585;28;19957;-75
2023/10/31 05:21:33;;;;;;;;;;;35.90;55.60;;;;;;5113200;27;19965;-75
2023/10/31 05:24:00;;;;;;;;;;;36.10;54.80;;;;;;5116568;27;20288;-72
2023/10/31 05:26:28;;;;;;;;;;;36.60;54.10;;;;;;5112304;27;19912;-72
2023/10/31 05:28:55;;;;;;;;;;;37.20;54.50;;;;;;5118267;28;19908;-74
2023/10/31 05:31:21;;;;;;;;;;;37.50;53.40;;;;;;5119769;27;19919;-76
2023/10/31 05:33:48;;;;;;;;;;;37.20;53.70;;;;;;5110238;28;20398;-71
2023/10/31 05:36:18;;;;;;;;;;;36.30;54.10;;;;;;5109913;28;20011;-75
2023/10/31 05:38:45;;;;;;;;;;;36.30;54.00;;;;;;5111358;28;19911;-77
2023/10/31 05:41:12;;;;;;;;;;;35.90;54.60;;;;;;5111593;28;19915;-73
2023/10/31 05:43:38;;;;;;;;;;;35.70;54.30;;;;;;5092229;28;20412;-73
2023/10/31 05:46:05;;;;;;;;;;;35.30;55.10;;;;;;5110869;28;19908;-75
2023/10/31 05:48:32;;;;;;;;;;;35.60;55.40;;;;;;5110650;28;19920;-78
2023/10/31 05:50:59;;;;;;;;;;;36.00;53.90;;;;;;5110348;28;19907;-74
2023/10/31 05:53:26;;;;;;;;;;;36.20;54.10;;;;;;5110538;28;19916;-76
2023/10/31 05:55:52;;;;;;;;;;;36.20;54.10;;;;;;5110337;28;19911;-76
2023/10/31 05:58:19;;;;;;;;;;;36.10;54.10;;;;;;5111011;28;19915;-73
2023/10/31 06:00:46;;;;;;;;;;;36.20;54.00;;;;;;5112031;28;20245;-77
2023/10/31 06:03:13;;;;;;;;;;;35.80;53.90;;;;;;5111730;28;19915;-72
2023/10/31 06:05:39;;;;;;;;;;;35.80;54.20;;;;;;5111953;28;20355;-74
2023/10/31 06:08:06;;;;;;;;;;;36.00;53.90;;;;;;5111564;28;19959;-75
2023/10/31 06:10:32;;;;;;;;;;;35.50;54.50;;;;;;5111826;28;19915;-73
2023/10/31 06:12:59;;;;;;;;;;;35.80;54.90;;;;;;5109986;28;19998;-73
2023/10/31 06:15:26;;;;;;;;;;;35.10;55.30;;;;;;5111753;28;19957;-75
2023/10/31 06:17:52;;;;;;;;;;;35.10;54.50;;;;;;5103859;28;20066;-74
2023/10/31 06:20:19;;;;;;;;;;;34.70;54.80;;;;;;5094725;28;20368;-72
2023/10/31 06:22:46;;;;;;;;;;;34.20;55.70;;;;;;5108857;28;19914;-73
2023/10/31 06:25:12;;;;;;;;;;;33.40;57.00;;;;;;5100128;28;19908;-76
2023/10/31 06:27:39;;;;;;;;;;;32.70;57.80;;;;;;5091689;28;19916;-75
2023/10/31 06:30:06;;;;;;;;;;;31.80;58.40;;;;;;5091564;28;19915;-76
2023/10/31 06:32:33;;;;;;;;;;;30.70;59.50;;;;;;5091561;28;19920;-73
2023/10/31 06:35:00;;;;;;;;;;;29.70;61.10;;;;;;5102249;28;20330;-73
2023/10/31 06:37:26;;;;;;;;;;;29.30;62.20;;;;;;5108420;28;20325;-75
2023/10/31 06:39:53;;;;;;;;;;;28.80;62.20;;;;;;5111244;28;19912;-75
2023/10/31 06:42:20;;;;;;;;;;;27.90;64.30;;;;;;5111523;28;20373;-76
2023/10/31 06:44:46;;;;;;;;;;;27.30;65.80;;;;;;5114433;28;19908;-74
2023/10/31 06:47:13;;;;;;;;;;;26.90;66.50;;;;;;5114723;28;19912;-74
2023/10/31 06:49:40;;;;;;;;;;;26.70;66.20;;;;;;5114926;28;19919;-71
2023/10/31 06:52:06;;;;;;;;;;;26.10;67.10;;;;;;5115300;28;19912;-74
2023/10/31 06:54:34;;;;;;;;;;;25.70;67.70;;;;;;5114922;28;20368;-75
2023/10/31 06:57:04;;;;;;;;;;;25.40;67.80;;;;;;5115291;28;19961;-70
2023/10/31 06:59:31;;;;;;;;;;;25.20;68.50;;;;;;5115164;28;19912;-75
2023/10/31 07:01:57;;;;;;;;;;;24.90;68.90;;;;;;5114503;28;19947;-73
2023/10/31 07:04:24;;;;;;;;;;;24.80;69.80;;;;;;5102341;28;19912;-77
2023/10/31 07:06:56;;;;;;;;;;;24.70;69.70;;;;;;5107249;28;19912;-73
2023/10/31 07:09:26;;;;;;;;;;;24.50;70.00;;;;;;5114355;28;19912;-72
2023/10/31 07:11:53;;;;;;;;;;;24.30;70.30;;;;;;5098429;28;19919;-72
2023/10/31 07:14:20;;;;;;;;;;;24.20;70.80;;;;;;5099919;28;19912;-73
2023/10/31 07:16:48;;;;;;;;;;;24.00;70.50;;;;;;5113809;28;19919;-74
2023/10/31 07:19:15;;;;;;;;;;;23.90;71.20;;;;;;5114418;28;19911;-73
2023/10/31 07:21:42;;;;;;;;;;;23.90;70.60;;;;;;5114953;28;19908;-73
2023/10/31 07:24:08;;;;;;;;;;;23.60;71.60;;;;;;5115043;28;19908;-73
2023/10/31 07:26:35;;;;;;;;;;;23.50;71.70;;;;;;5114861;28;19908;-74
2023/10/31 07:29:02;;;;;;;;;;;23.40;71.70;;;;;;5114681;28;19908;-74
2023/10/31 07:31:29;;;;;;;;;;;23.40;72.00;;;;;;5114559;28;19933;-72
2023/10/31 07:33:56;;;;;;;;;;;23.10;72.00;;;;;;5114005;28;19920;-74
2023/10/31 07:36:22;;;;;;;;;;;22.90;72.60;;;;;;5114252;28;19908;-73
2023/10/31 07:38:49;;;;;;;;;;;22.90;72.90;;;;;;5096248;28;19947;-73
2023/10/31 07:41:16;;;;;;;;;;;22.60;73.60;;;;;;5114374;28;20014;-73
2023/10/31 07:43:42;;;;;;;;;;;22.40;74.40;;;;;;5113878;28;19933;-76
2023/10/31 07:46:09;;;;;;;;;;;22.20;73.30;;;;;;5114673;28;19908;-74
2023/10/31 07:48:35;;;;;;;;;;;22.00;74.00;;;;;;5114418;28;19999;-75
2023/10/31 07:51:02;;;;;;;;;;;22.00;74.70;;;;;;5114019;28;19996;-73
2023/10/31 07:53:29;;;;;;;;;;;21.90;74.90;;;;;;5114172;28;20376;-75
2023/10/31 07:55:56;;;;;;;;;;;21.80;75.50;;;;;;5101588;28;20022;-75
2023/10/31 07:58:22;;;;;;;;;;;21.70;76.20;;;;;;5104677;28;19919;-74
2023/10/31 08:00:49;;;;;;;;;;;21.50;76.70;;;;;;5097900;28;19976;-72
2023/10/31 08:03:15;;;;;;;;;;;21.40;76.10;;;;;;5113737;28;19911;-72
2023/10/31 08:05:42;;;;;;;;;;;21.50;76.00;;;;;;5113173;28;19914;-74
2023/10/31 08:08:09;;;;;;;;;;;21.50;76.10;;;;;;5121931;27;19908;-76
2023/10/31 08:10:35;;;;;;;;;;;21.60;76.10;;;;;;5117995;27;19970;-73
2023/10/31 08:13:02;;;;;;;;;;;21.50;75.70;;;;;;5121918;27;19920;-75
2023/10/31 08:15:29;;;;;;;;;;;21.50;75.60;;;;;;5123093;27;19920;-75
2023/10/31 08:17:55;;;;;;;;;;;21.40;75.90;;;;;;5121206;27;20384;-74
2023/10/31 08:20:22;;;;;;;;;;;21.20;76.20;;;;;;5120413;27;19946;-74
2023/10/31 08:22:48;;;;;;;;;;;21.00;76.40;;;;;;5120416;27;20328;-73
2023/10/31 08:25:15;;;;;;;;;;;20.90;76.20;;;;;;5127847;27;19915;-73
2023/10/31 08:27:42;;;;;;;;;;;20.80;76.70;;;;;;5110344;28;19908;-76
2023/10/31 08:30:09;;;;;;;;;;;20.90;77.00;;;;;;5111082;28;19914;-75
2023/10/31 08:32:35;;;;;;;;;;;20.90;77.30;;;;;;5111157;28;19915;-76
2023/10/31 08:35:03;;;;;;;;;;;20.60;77.60;;;;;;5111864;28;19919;-76
2023/10/31 08:37:30;;;;;;;;;;;20.60;77.50;;;;;;5112821;28;20448;-75
2023/10/31 08:39:56;;;;;;;;;;;20.50;77.50;;;;;;5128316;27;19918;-75
2023/10/31 08:42:23;;;;;;;;;;;20.60;77.80;;;;;;5133671;27;20288;-75
2023/10/31 08:44:50;;;;;;;;;;;20.60;78.60;;;;;;5118583;27;19912;-75
2023/10/31 08:47:18;;;;;;;;;;;20.60;78.90;;;;;;5113053;27;19923;-77
2023/10/31 08:49:45;;;;;;;;;;;20.60;79.20;;;;;;5116100;27;20372;-75
2023/10/31 08:52:11;;;;;;;;;;;20.60;79.00;;;;;;5113227;27;20014;-76
2023/10/31 08:54:38;;;;;;;;;;;20.50;78.70;;;;;;5123110;27;19920;-73
2023/10/31 08:57:08;;;;;;;;;;;20.50;78.30;;;;;;5111848;27;20185;-76
2023/10/31 08:59:35;;;;;;;;;;;20.60;78.10;;;;;;5132988;27;20306;-75
2023/10/31 09:02:02;;;;;;;;;;;20.40;78.60;;;;;;5099661;28;19919;-73
2023/10/31 09:04:28;;;;;;;;;;;20.40;78.70;;;;;;5112582;28;19908;-74
2023/10/31 09:06:55;;;;;;;;;;;20.40;79.20;;;;;;5115468;27;19912;-77
2023/10/31 09:09:21;;;;;;;;;;;20.40;78.90;;;;;;5110757;27;19918;-73
2023/10/31 09:11:48;;;;;;;;;;;20.30;78.80;;;;;;5109835;28;19911;-73
2023/10/31 09:14:15;;;;;;;;;;;20.30;79.10;;;;;;5113736;27;19915;-74
2023/10/31 09:16:41;;;;;;;;;;;20.30;78.90;;;;;;5117404;27;19911;-73
2023/10/31 09:19:08;;;;;;;;;;;20.30;78.70;;;;;;5133456;27;20352;-77
2023/10/31 09:21:35;;;;;;;;;;;20.30;78.80;;;;;;5132888;27;20343;-74
2023/10/31 09:24:02;;;;;;;;;;;20.20;79.20;;;;;;5128803;27;19952;-76
2023/10/31 09:26:29;;;;;;;;;;;20.20;79.30;;;;;;5114466;28;19908;-74
2023/10/31 09:28:55;;;;;;;;;;;20.20;79.20;;;;;;5133230;27;19996;-79
2023/10/31 09:31:22;;;;;;;;;;;20.20;79.30;;;;;;5133004;28;20275;-73
2023/10/31 09:33:49;;;;;;;;;;;20.10;79.40;;;;;;5124974;28;19920;-77
2023/10/31 09:36:15;;;;;;;;;;;20.20;79.90;;;;;;5112587;28;19993;-74
2023/10/31 09:38:42;;;;;;;;;;;20.10;79.90;;;;;;5132626;28;20358;-74
2023/10/31 09:41:09;;;;;;;;;;;20.10;79.90;;;;;;5096529;28;19954;-77
2023/10/31 09:43:35;;;;;;;;;;;20.00;79.90;;;;;;5101416;28;19946;-72
2023/10/31 09:46:03;;;;;;;;;;;20.00;80.20;;;;;;5113570;28;19912;-73
2023/10/31 09:48:31;;;;;;;;;;;20.00;80.50;;;;;;5085522;28;19912;-73
2023/10/31 09:50:57;;;;;;;;;;;20.00;80.90;;;;;;5112122;28;19937;-73
2023/10/31 09:53:25;;;;;;;;;;;19.90;80.20;;;;;;5129547;28;19920;-70
2023/10/31 09:55:53;;;;;;;;;;;19.90;80.70;;;;;;5113855;28;20016;-73
2023/10/31 09:58:20;;;;;;;;;;;19.90;80.70;;;;;;5112723;28;20429;-70
2023/10/31 10:00:46;;;;;;;;;;;19.90;79.80;;;;;;5112387;28;19908;-72
2023/10/31 10:03:13;;;;;;;;;;;20.00;79.60;;;;;;5111341;28;19994;-71
2023/10/31 10:05:40;;;;;;;;;;;20.10;79.80;;;;;;5111840;28;20014;-72
2023/10/31 10:08:07;;;;;;;;;;;20.10;79.70;;;;;;5112408;28;19939;-72
2023/10/31 10:10:34;;;;;;;;;;;20.10;79.80;;;;;;5112327;28;19908;-73
2023/10/31 10:13:03;;;;;;;;;;;20.00;80.00;;;;;;5111900;28;19931;-75
2023/10/31 10:15:29;;;;;;;;;;;20.00;79.90;;;;;;5111984;28;19933;-73
2023/10/31 10:17:56;;;;;;;;;;;19.90;80.20;;;;;;5112504;28;19911;-71
2023/10/31 10:20:23;;;;;;;;;;;19.90;80.70;;;;;;5124179;27;19918;-72
2023/10/31 10:22:49;;;;;;;;;;;20.00;80.80;;;;;;5124925;27;19912;-71
2023/10/31 10:25:18;;;;;;;;;;;20.10;80.50;;;;;;5122066;27;19919;-73
2023/10/31 10:27:45;;;;;;;;;;;20.20;80.80;;;;;;5122519;27;19934;-74
2023/10/31 10:30:13;;;;;;;;;;;20.30;80.40;;;;;;5113739;27;19972;-75
2023/10/31 10:32:40;;;;;;;;;;;20.30;80.70;;;;;;5114015;27;19927;-74
2023/10/31 10:35:07;;;;;;;;;;;20.30;79.60;;;;;;5095635;28;19998;-74
2023/10/31 10:37:36;;;;;;;;;;;20.20;79.60;;;;;;5115351;27;19912;-74
2023/10/31 10:40:06;;;;;;;;;;;20.20;80.00;;;;;;5112114;27;20812;-75
2023/10/31 10:42:33;;;;;;;;;;;20.20;79.70;;;;;;5114907;27;19912;-75
2023/10/31 10:45:03;;;;;;;;;;;20.20;80.20;;;;;;5097165;28;19911;-73
2023/10/31 10:47:31;;;;;;;;;;;20.20;79.60;;;;;;5118077;27;20010;-73
2023/10/31 10:49:59;;;;;;;;;;;20.10;79.10;;;;;;5111407;27;20434;-74
2023/10/31 10:52:44;;;;;;;;;;;20.10;79.70;;;;;;5094854;28;19912;-73
2023/10/31 10:55:19;;;;;;;;;;;20.00;79.70;;;;;;5095080;28;19999;-72
2023/10/31 10:57:55;;;;;;;;;;;20.00;80.00;;;;;;5114867;27;20292;-73
2023/10/31 11:00:24;;;;;;;;;;;19.90;80.50;;;;;;5135649;27;19918;-74
2023/10/31 11:02:54;;;;;;;;;;;19.90;80.80;;;;;;5134284;27;20390;-74
2023/10/31 11:05:21;;;;;;;;;;;19.80;81.10;;;;;;5136102;27;19912;-74
2023/10/31 11:07:48;;;;;;;;;;;19.70;81.10;;;;;;5102673;28;19912;-75
2023/10/31 11:10:15;;;;;;;;;;;19.80;81.40;;;;;;5115212;28;20394;-74
2023/10/31 11:12:42;;;;;;;;;;;19.70;81.10;;;;;;5115087;28;20018;-73
2023/10/31 11:15:10;;;;;;;;;;;19.60;81.10;;;;;;5107990;27;19924;-74
2023/10/31 11:17:40;;;;;;;;;;;19.60;81.40;;;;;;5088266;28;19947;-74
2023/10/31 11:20:09;;;;;;;;;;;19.60;81.20;;;;;;5115356;27;20431;-73
2023/10/31 11:22:44;;;;;;;;;;;19.70;81.70;;;;;;5114966;28;19908;-73
2023/10/31 11:25:11;;;;;;;;;;;19.60;81.70;;;;;;5114710;28;19904;-75
2023/10/31 11:27:37;;;;;;;;;;;19.50;81.90;;;;;;5114634;27;20002;-72
2023/10/31 11:30:08;;;;;;;;;;;19.50;81.70;;;;;;5113533;28;19912;-73
2023/10/31 11:32:35;;;;;;;;;;;19.40;81.20;;;;;;5114499;28;19962;-75
2023/10/31 11:35:02;;;;;;;;;;;19.50;81.60;;;;;;5114408;28;19969;-72
2023/10/31 11:37:35;;;;;;;;;;;19.40;81.40;;;;;;5114624;28;19912;-76
2023/10/31 11:40:22;;;;;;;;;;;19.40;81.90;;;;;;5114610;28;19908;-73
2023/10/31 11:42:54;;;;;;;;;;;19.40;82.50;;;;;;5114704;28;19919;-74
2023/10/31 11:45:27;;;;;;;;;;;19.30;82.50;;;;;;5114673;28;20386;-73
2023/10/31 11:47:54;;;;;;;;;;;19.20;82.40;;;;;;5114723;27;20332;-74
2023/10/31 11:50:21;;;;;;;;;;;19.20;82.80;;;;;;5114196;28;19920;-73
2023/10/31 11:53:07;;;;;;;;;;;19.10;82.20;;;;;;5096196;28;19920;-72
2023/10/31 11:55:37;;;;;;;;;;;19.10;82.90;;;;;;5090313;28;19927;-75
2023/10/31 11:58:14;;;;;;;;;;;19.10;82.70;;;;;;5120644;27;19916;-76
2023/10/31 12:00:40;;;;;;;;;;;19.10;82.90;;;;;;5134689;27;20364;-72
2023/10/31 12:03:07;;;;;;;;;;;19.20;82.50;;;;;;5134954;27;19907;-75
2023/10/31 12:05:33;;;;;;;;;;;19.20;82.20;;;;;;5135270;27;19915;-74
2023/10/31 12:08:00;;;;;;;;;;;19.30;83.10;;;;;;5120488;27;19956;-74
2023/10/31 12:10:30;;;;;;;;;;;19.40;83.10;;;;;;5101078;28;19916;-74
2023/10/31 12:12:58;;;;;;;;;;;19.30;82.30;;;;;;5093892;28;19923;-72
2023/10/31 12:15:25;;;;;;;;;;;19.30;82.30;;;;;;5093560;28;19948;-75
2023/10/31 12:17:52;;;;;;;;;;;19.30;82.80;;;;;;5106368;28;19912;-74
2023/10/31 12:20:18;;;;;;;;;;;19.30;83.40;;;;;;5113977;28;19908;-74
2023/10/31 12:22:45;;;;;;;;;;;19.30;83.00;;;;;;5113890;28;19907;-73
2023/10/31 12:25:12;;;;;;;;;;;19.40;83.20;;;;;;5095286;28;19912;-73
2023/10/31 12:27:43;;;;;;;;;;;19.30;82.90;;;;;;5105600;28;20356;-74
2023/10/31 12:30:10;;;;;;;;;;;19.30;84.00;;;;;;5113816;28;19960;-75
2023/10/31 12:32:37;;;;;;;;;;;19.30;83.90;;;;;;5113616;28;19915;-75
2023/10/31 12:35:04;;;;;;;;;;;19.10;83.40;;;;;;5113888;28;19912;-74
2023/10/31 12:37:30;;;;;;;;;;;19.10;84.60;;;;;;5113622;27;20406;-73
2023/10/31 12:39:58;;;;;;;;;;;19.00;84.60;;;;;;5113608;28;19914;-73
2023/10/31 12:42:29;;;;;;;;;;;19.10;85.50;;;;;;5113113;28;19908;-74
2023/10/31 12:44:56;;;;;;;;;;;19.00;84.30;;;;;;5113469;28;19916;-75
2023/10/31 12:47:23;;;;;;;;;;;19.00;84.60;;;;;;5113359;28;19912;-71
2023/10/31 12:50:05;;;;;;;;;;;18.90;85.10;;;;;;5113347;28;20002;-74
2023/10/31 12:52:52;;;;;;;;;;;18.80;84.60;;;;;;5113316;28;19912;-73
2023/10/31 12:55:22;;;;;;;;;;;18.70;85.00;;;;;;5112780;28;19938;-73
2023/10/31 12:57:49;;;;;;;;;;;18.70;85.10;;;;;;5113383;28;19912;-74
2023/10/31 13:00:19;;;;;;;;;;;18.70;85.00;;;;;;5113395;28;19907;-73
2023/10/31 13:02:45;;;;;;;;;;;18.60;85.10;;;;;;5113255;28;19916;-73
2023/10/31 13:05:19;;;;;;;;;;;18.60;86.00;;;;;;5113036;28;19912;-73
2023/10/31 13:07:49;;;;;;;;;;;18.60;86.40;;;;;;5123720;27;19912;-72
2023/10/31 13:10:16;;;;;;;;;;;18.60;86.40;;;;;;5133763;27;19908;-74
2023/10/31 13:12:47;;;;;;;;;;;18.50;86.50;;;;;;5133637;27;20360;-73
2023/10/31 13:15:18;;;;;;;;;;;18.60;88.20;;;;;;5133487;27;20002;-74
2023/10/31 13:17:45;;;;;;;;;;;18.60;86.60;;;;;;5133539;27;20288;-74
2023/10/31 13:20:12;;;;;;;;;;;18.60;87.00;;;;;;5115150;27;19958;-74
2023/10/31 13:22:40;;;;;;;;;;;18.60;86.70;;;;;;5133935;27;20343;-75
2023/10/31 13:25:10;;;;;;;;;;;18.60;86.90;;;;;;5114960;28;19912;-74
2023/10/31 13:27:38;;;;;;;;;;;18.50;86.50;;;;;;5112791;28;19956;-74
2023/10/31 13:30:05;;;;;;;;;;;18.40;87.50;;;;;;5113051;28;19908;-73
2023/10/31 13:32:32;;;;;;;;;;;18.40;87.60;;;;;;5113032;28;20000;-74
2023/10/31 13:34:59;;;;;;;;;;;18.50;87.80;;;;;;5112923;28;20370;-74
2023/10/31 13:37:25;;;;;;;;;;;18.50;87.90;;;;;;5119216;28;19911;-73
2023/10/31 13:39:52;;;;;;;;;;;18.50;88.60;;;;;;5114470;28;19918;-74
2023/10/31 13:42:19;;;;;;;;;;;18.50;88.90;;;;;;5112908;28;19912;-74
2023/10/31 13:44:45;;;;;;;;;;;18.50;89.10;;;;;;5112811;28;19912;-75
2023/10/31 13:47:12;;;;;;;;;;;18.50;89.40;;;;;;5112974;28;20322;-74
2023/10/31 13:49:39;;;;;;;;;;;18.60;89.10;;;;;;5112726;28;20019;-75
2023/10/31 13:52:09;;;;;;;;;;;18.50;88.40;;;;;;5112944;28;19911;-74
2023/10/31 13:54:35;;;;;;;;;;;18.50;88.70;;;;;;5116026;28;19916;-75
2023/10/31 13:57:02;;;;;;;;;;;18.60;89.20;;;;;;5117921;27;20314;-74
2023/10/31 13:59:28;;;;;;;;;;;18.60;89.40;;;;;;5116781;27;20262;-73
2023/10/31 14:01:55;;;;;;;;;;;18.60;89.70;;;;;;5116679;28;19915;-73
2023/10/31 14:04:22;;;;;;;;;;;18.50;90.10;;;;;;5116797;28;20432;-73
2023/10/31 14:06:49;;;;;;;;;;;18.60;89.90;;;;;;5116409;27;19980;-74
2023/10/31 14:09:16;;;;;;;;;;;18.60;89.90;;;;;;5116559;28;20403;-74
2023/10/31 14:11:43;;;;;;;;;;;18.60;89.80;;;;;;5116943;28;20276;-74
2023/10/31 14:14:10;;;;;;;;;;;18.60;89.80;;;;;;5116305;28;19955;-74
2023/10/31 14:16:38;;;;;;;;;;;18.70;89.30;;;;;;5116765;28;19969;-75